createdAt,value
2018-05-16T00:01:14.247Z,14.70
2018-05-16T00:03:46.803Z,14.70
2018-05-16T00:06:19.334Z,14.67
2018-05-16T00:08:51.834Z,14.56
2018-05-16T00:11:24.356Z,14.52
2018-05-16T00:13:56.859Z,14.45
2018-05-16T00:16:29.379Z,14.42
2018-05-16T00:19:01.903Z,14.38
2018-05-16T00:21:34.448Z,14.36
2018-05-16T00:24:07.030Z,14.37
2018-05-16T00:26:39.587Z,14.33
2018-05-16T00:29:12.094Z,14.28
2018-05-16T00:31:44.622Z,14.25
2018-05-16T00:34:17.128Z,14.17
2018-05-16T00:36:49.673Z,14.14
2018-05-16T00:39:22.184Z,14.07
2018-05-16T00:41:54.707Z,13.98
2018-05-16T00:44:27.215Z,13.93
2018-05-16T00:46:59.733Z,13.89
2018-05-16T00:49:32.249Z,13.85
2018-05-16T00:52:04.849Z,13.82
2018-05-16T00:54:37.442Z,13.77
2018-05-16T00:57:09.988Z,13.76
2018-05-16T00:59:42.506Z,13.72
2018-05-16T01:02:15.046Z,13.71
2018-05-16T01:04:47.564Z,13.67
2018-05-16T01:07:20.111Z,13.58
2018-05-16T01:09:52.654Z,13.55
2018-05-16T01:12:25.193Z,13.54
2018-05-16T01:14:57.696Z,13.55
2018-05-16T01:17:30.231Z,13.52
2018-05-16T01:20:02.749Z,13.42
2018-05-16T01:22:36.752Z,13.38
2018-05-16T01:25:09.288Z,13.33
2018-05-16T01:27:41.837Z,13.31
2018-05-16T01:30:14.367Z,13.08
2018-05-16T01:32:46.907Z,13.00
2018-05-16T01:35:19.422Z,12.95
2018-05-16T01:37:51.988Z,12.90
2018-05-16T01:40:24.515Z,12.87
2018-05-16T01:42:57.066Z,12.85
2018-05-16T01:45:29.621Z,12.84
2018-05-16T01:48:02.165Z,12.81
2018-05-16T01:50:34.692Z,12.76
2018-05-16T01:53:07.341Z,12.72
2018-05-16T01:55:40.091Z,12.70
2018-05-16T01:58:12.640Z,12.67
2018-05-16T02:00:45.162Z,12.61
2018-05-16T02:03:17.690Z,12.58
2018-05-16T02:05:50.204Z,12.57
2018-05-16T02:08:22.732Z,12.52
2018-05-16T02:10:55.276Z,12.49
2018-05-16T02:13:27.796Z,12.46
2018-05-16T02:16:00.311Z,12.40
2018-05-16T02:18:32.836Z,12.36
2018-05-16T02:21:06.771Z,12.33
2018-05-16T02:23:39.535Z,12.32
2018-05-16T02:26:12.092Z,12.29
2018-05-16T02:28:44.632Z,12.26
2018-05-16T02:31:17.154Z,12.26
2018-05-16T02:33:49.697Z,12.25
2018-05-16T02:36:22.210Z,12.19
2018-05-16T02:38:55.495Z,12.11
2018-05-16T02:41:28.009Z,12.08
2018-05-16T02:44:00.563Z,12.02
2018-05-16T02:46:33.090Z,12.01
2018-05-16T02:49:05.650Z,11.99
2018-05-16T02:51:38.193Z,11.97
2018-05-16T02:54:10.745Z,11.94
2018-05-16T02:56:43.323Z,11.91
2018-05-16T02:59:15.853Z,11.91
2018-05-16T03:01:48.389Z,11.88
2018-05-16T03:04:20.907Z,11.83
2018-05-16T03:06:53.445Z,11.81
2018-05-16T03:09:25.981Z,11.77
2018-05-16T03:11:58.518Z,11.77
2018-05-16T03:14:31.504Z,11.76
2018-05-16T03:17:04.032Z,11.75
2018-05-16T03:19:36.862Z,11.74
2018-05-16T03:22:09.390Z,11.75
2018-05-16T03:24:41.897Z,11.72
2018-05-16T03:27:14.447Z,11.70
2018-05-16T03:29:46.963Z,11.69
2018-05-16T03:32:19.480Z,11.67
2018-05-16T03:34:51.992Z,11.65
2018-05-16T03:37:24.516Z,11.66
2018-05-16T03:39:57.036Z,11.65
2018-05-16T03:42:29.581Z,11.63
2018-05-16T03:45:02.074Z,11.61
2018-05-16T03:47:34.614Z,11.64
2018-05-16T03:50:07.593Z,11.61
2018-05-16T03:52:40.130Z,11.63
2018-05-16T03:55:12.707Z,11.64
2018-05-16T04:01:04.219Z,11.74
2018-05-16T04:03:48.676Z,11.82
2018-05-16T04:06:21.181Z,11.86
2018-05-16T04:08:53.719Z,11.90
2018-05-16T04:11:26.232Z,11.92
2018-05-16T04:13:58.756Z,11.98
2018-05-16T04:16:31.258Z,12.01
2018-05-16T04:19:03.786Z,12.07
2018-05-16T04:21:37.690Z,12.09
2018-05-16T04:24:10.231Z,12.10
2018-05-16T04:26:42.776Z,12.10
2018-05-16T04:29:15.320Z,12.14
2018-05-16T04:31:47.869Z,12.19
2018-05-16T04:34:20.417Z,12.24
2018-05-16T04:36:52.928Z,12.19
2018-05-16T04:39:25.481Z,12.17
2018-05-16T04:41:58.025Z,12.24
2018-05-16T04:44:30.571Z,12.29
2018-05-16T04:47:03.100Z,12.36
2018-05-16T04:49:35.761Z,12.38
2018-05-16T04:52:08.298Z,12.40
2018-05-16T04:54:40.902Z,12.41
2018-05-16T04:57:13.449Z,12.49
2018-05-16T04:59:45.997Z,12.55
2018-05-16T05:02:18.531Z,12.65
2018-05-16T05:04:51.081Z,12.75
2018-05-16T05:07:23.596Z,12.83
2018-05-16T05:09:56.156Z,12.95
2018-05-16T05:12:28.685Z,13.01
2018-05-16T05:15:01.225Z,13.09
2018-05-16T05:17:33.743Z,13.17
2018-05-16T05:20:06.949Z,13.28
2018-05-16T05:22:39.501Z,13.39
2018-05-16T05:25:12.037Z,13.54
2018-05-16T05:27:44.627Z,13.62
2018-05-16T05:30:17.235Z,13.68
2018-05-16T05:32:49.746Z,13.76
2018-05-16T05:35:22.290Z,13.81
2018-05-16T05:37:54.828Z,13.89
2018-05-16T05:40:27.343Z,13.96
2018-05-16T05:42:59.887Z,14.09
2018-05-16T05:45:32.399Z,14.13
2018-05-16T05:48:06.225Z,14.24
2018-05-16T05:50:38.808Z,14.41
2018-05-16T05:53:11.367Z,14.59
2018-05-16T05:55:43.939Z,14.78
2018-05-16T05:58:16.510Z,15.04
2018-05-16T06:00:49.051Z,15.22
2018-05-16T06:03:21.620Z,15.44
2018-05-16T06:05:54.151Z,15.63
2018-05-16T06:08:26.693Z,15.77
2018-05-16T06:10:59.233Z,15.93
2018-05-16T06:13:31.800Z,16.04
2018-05-16T06:16:04.386Z,16.18
2018-05-16T06:18:36.945Z,16.33
2018-05-16T06:21:09.462Z,16.42
2018-05-16T06:23:42.023Z,16.57
2018-05-16T06:26:14.536Z,16.74
2018-05-16T06:28:47.089Z,16.97
2018-05-16T06:31:19.605Z,17.22
2018-05-16T06:33:52.162Z,17.40
2018-05-16T06:36:24.682Z,17.60
2018-05-16T06:38:57.220Z,17.72
2018-05-16T06:41:29.768Z,17.84
2018-05-16T06:44:02.297Z,17.93
2018-05-16T06:46:35.002Z,18.01
2018-05-16T06:49:07.559Z,18.08
2018-05-16T06:51:40.097Z,18.15
2018-05-16T06:54:12.665Z,18.18
2018-05-16T06:56:45.191Z,18.26
2018-05-16T06:59:17.756Z,18.41
2018-05-16T07:01:50.279Z,18.54
2018-05-16T07:04:22.832Z,18.68
2018-05-16T07:06:55.344Z,18.84
2018-05-16T07:09:27.894Z,19.08
2018-05-16T07:12:00.408Z,19.27
2018-05-16T07:14:32.941Z,19.45
2018-05-16T07:17:05.676Z,19.66
2018-05-16T07:19:38.668Z,19.66
2018-05-16T07:22:11.560Z,19.96
2018-05-16T07:24:44.812Z,20.03
2018-05-16T07:27:17.333Z,20.04
2018-05-16T07:29:49.880Z,20.03
2018-05-16T07:32:22.463Z,20.10
2018-05-16T07:34:54.977Z,20.25
2018-05-16T07:37:27.489Z,20.39
2018-05-16T07:40:00.064Z,20.48
2018-05-16T07:42:32.583Z,20.55
2018-05-16T07:45:06.415Z,20.62
2018-05-16T07:47:39.804Z,20.68
2018-05-16T07:50:12.360Z,20.72
2018-05-16T07:52:44.896Z,20.73
2018-05-16T07:55:17.505Z,20.72
2018-05-16T07:57:50.107Z,20.72
2018-05-16T08:00:22.621Z,20.72
2018-05-16T08:02:55.152Z,20.71
2018-05-16T08:05:27.692Z,20.76
2018-05-16T08:08:00.218Z,20.84
2018-05-16T08:10:32.767Z,20.95
2018-05-16T08:13:05.486Z,21.07
2018-05-16T08:15:38.053Z,21.16
2018-05-16T08:18:10.599Z,21.23
2018-05-16T08:20:43.180Z,21.19
2018-05-16T08:23:15.703Z,21.16
2018-05-16T08:25:48.261Z,21.08
2018-05-16T08:28:20.795Z,21.04
2018-05-16T08:30:53.327Z,20.98
2018-05-16T08:33:25.829Z,20.97
2018-05-16T08:35:58.355Z,20.95
2018-05-16T08:38:30.879Z,20.89
2018-05-16T08:41:03.409Z,20.77
2018-05-16T08:43:37.074Z,20.74
2018-05-16T08:46:09.638Z,20.74
2018-05-16T08:48:42.172Z,20.80
2018-05-16T08:51:14.710Z,21.01
2018-05-16T08:53:47.317Z,21.26
2018-05-16T08:56:19.823Z,21.38
2018-05-16T08:58:52.354Z,21.42
2018-05-16T09:01:24.859Z,21.43
2018-05-16T09:03:57.382Z,21.44
2018-05-16T09:06:29.900Z,21.54
2018-05-16T09:09:02.439Z,21.65
2018-05-16T09:11:35.778Z,21.91
2018-05-16T09:14:08.318Z,22.36
2018-05-16T09:16:40.877Z,23.02
2018-05-16T09:19:13.419Z,23.23
2018-05-16T09:21:45.966Z,23.22
2018-05-16T09:24:18.490Z,23.23
2018-05-16T09:26:51.016Z,23.15
2018-05-16T09:29:23.541Z,23.17
2018-05-16T09:31:56.045Z,23.18
2018-05-16T09:34:28.568Z,23.23
2018-05-16T09:37:01.087Z,23.27
2018-05-16T09:39:33.607Z,23.44
2018-05-16T09:42:06.757Z,23.52
2018-05-16T09:44:39.297Z,23.51
2018-05-16T09:47:11.866Z,23.53
2018-05-16T09:49:44.412Z,23.61
2018-05-16T09:52:16.924Z,23.73
2018-05-16T09:54:49.465Z,23.95
2018-05-16T09:57:21.971Z,24.20
2018-05-16T09:59:54.496Z,24.40
2018-05-16T10:02:27.002Z,24.50
2018-05-16T10:04:59.545Z,24.66
2018-05-16T10:07:32.047Z,24.69
2018-05-16T10:10:04.632Z,24.58
2018-05-16T10:12:37.207Z,24.46
2018-05-16T10:15:09.825Z,24.32
2018-05-16T10:17:42.585Z,24.17
2018-05-16T10:20:15.162Z,23.95
2018-05-16T10:22:47.631Z,23.79
2018-05-16T10:25:20.149Z,23.74
2018-05-16T10:27:52.657Z,23.71
2018-05-16T10:30:25.199Z,23.75
2018-05-16T10:32:57.703Z,23.79
2018-05-16T10:35:30.237Z,23.78
2018-05-16T10:38:02.741Z,23.82
2018-05-16T10:40:35.671Z,23.86
2018-05-16T10:43:08.297Z,23.91
2018-05-16T10:45:40.843Z,23.95
2018-05-16T10:48:13.367Z,23.83
2018-05-16T10:50:45.910Z,23.78
2018-05-16T10:53:18.421Z,23.71
2018-05-16T10:55:50.947Z,23.64
2018-05-16T10:58:23.443Z,23.65
2018-05-16T11:00:55.969Z,23.55
2018-05-16T11:03:28.591Z,23.63
2018-05-16T11:06:01.039Z,23.69
2018-05-16T11:08:33.540Z,23.78
2018-05-16T11:11:06.465Z,23.86
2018-05-16T11:13:38.997Z,23.84
2018-05-16T11:16:11.525Z,24.01
2018-05-16T11:18:44.096Z,24.11
2018-05-16T11:21:16.634Z,24.34
2018-05-16T11:23:49.183Z,24.49
2018-05-16T11:26:21.731Z,24.52
2018-05-16T11:28:54.243Z,24.57
2018-05-16T11:31:26.769Z,24.78
2018-05-16T11:33:59.291Z,25.02
2018-05-16T11:36:31.823Z,25.04
2018-05-16T11:39:04.334Z,24.92
2018-05-16T11:41:37.095Z,24.67
2018-05-16T11:44:09.740Z,24.47
2018-05-16T11:46:42.255Z,24.39
2018-05-16T11:49:14.811Z,24.29
2018-05-16T11:51:47.361Z,24.12
2018-05-16T11:54:19.876Z,23.99
2018-05-16T11:56:52.404Z,23.86
2018-05-16T11:59:24.900Z,23.67
2018-05-16T12:01:57.421Z,23.62
2018-05-16T12:04:29.947Z,23.57
2018-05-16T12:07:02.462Z,23.45
2018-05-16T12:09:35.058Z,23.47
2018-05-16T12:12:07.836Z,23.42
2018-05-16T12:14:40.416Z,23.37
2018-05-16T12:17:13.033Z,23.40
2018-05-16T12:19:45.559Z,23.51
2018-05-16T12:22:18.085Z,23.46
2018-05-16T12:24:50.601Z,23.64
2018-05-16T12:27:23.125Z,23.72
2018-05-16T12:29:55.649Z,23.81
2018-05-16T12:32:28.178Z,23.67
2018-05-16T12:35:00.703Z,23.77
2018-05-16T12:37:33.218Z,23.88
2018-05-16T12:40:05.817Z,23.94
2018-05-16T12:45:42.996Z,23.73
2018-05-16T12:48:15.585Z,23.63
2018-05-16T12:50:48.111Z,23.56
2018-05-16T12:53:20.620Z,23.52
2018-05-16T12:55:53.145Z,23.53
2018-05-16T12:58:25.684Z,23.50
2018-05-16T13:00:58.209Z,23.60
2018-05-16T13:03:30.713Z,23.31
2018-05-16T13:06:03.229Z,23.48
2018-05-16T13:08:36.341Z,23.46
2018-05-16T13:11:08.890Z,23.80
2018-05-16T13:13:41.543Z,24.13
2018-05-16T13:16:14.676Z,24.28
2018-05-16T13:18:47.443Z,24.11
2018-05-16T13:21:19.968Z,24.47
2018-05-16T13:23:52.487Z,24.63
2018-05-16T13:26:25.009Z,24.47
2018-05-16T13:28:57.523Z,24.84
2018-05-16T13:31:30.041Z,25.15
2018-05-16T13:34:02.560Z,25.67
2018-05-16T13:36:35.141Z,26.06
2018-05-16T13:39:07.653Z,26.03
2018-05-16T13:41:40.340Z,25.76
2018-05-16T13:44:13.075Z,25.82
2018-05-16T13:46:45.600Z,25.58
2018-05-16T13:49:18.212Z,25.63
2018-05-16T13:51:50.731Z,25.74
2018-05-16T13:54:23.241Z,25.91
2018-05-16T13:56:55.765Z,26.04
2018-05-16T13:59:28.260Z,26.41
2018-05-16T14:02:00.786Z,26.35
2018-05-16T14:04:33.285Z,26.26
2018-05-16T14:07:06.053Z,26.13
2018-05-16T14:09:38.563Z,25.96
2018-05-16T14:12:11.096Z,26.02
2018-05-16T14:14:43.606Z,25.97
2018-05-16T14:17:16.163Z,25.70
2018-05-16T14:19:48.668Z,25.77
2018-05-16T14:22:21.182Z,25.61
2018-05-16T14:24:53.691Z,25.49
2018-05-16T14:27:26.209Z,25.52
2018-05-16T14:29:58.727Z,25.27
2018-05-16T14:32:31.246Z,25.11
2018-05-16T14:35:03.748Z,25.05
2018-05-16T14:37:36.292Z,25.07
2018-05-16T14:40:09.105Z,25.10
2018-05-16T14:42:41.773Z,25.25
2018-05-16T14:45:14.225Z,25.29
2018-05-16T14:47:46.793Z,25.35
2018-05-16T14:50:19.346Z,25.37
2018-05-16T14:52:51.874Z,25.48
2018-05-16T14:55:24.415Z,25.53
2018-05-16T14:57:56.944Z,25.54
2018-05-16T15:00:29.461Z,25.49
2018-05-16T15:03:01.988Z,25.25
2018-05-16T15:05:34.501Z,25.13
2018-05-16T15:08:07.301Z,25.10
2018-05-16T15:10:39.821Z,25.12
2018-05-16T15:13:12.358Z,25.07
2018-05-16T15:15:44.894Z,25.01
2018-05-16T15:18:17.429Z,24.98
2018-05-16T15:20:49.967Z,24.82
2018-05-16T15:23:22.467Z,24.87
2018-05-16T15:25:54.991Z,24.98
2018-05-16T15:28:27.507Z,24.96
2018-05-16T15:31:00.041Z,24.97
2018-05-16T15:33:32.547Z,25.00
2018-05-16T15:36:05.360Z,25.02
2018-05-16T15:38:38.207Z,24.99
2018-05-16T15:41:10.756Z,24.87
2018-05-16T15:43:43.273Z,24.83
2018-05-16T15:46:15.831Z,24.79
2018-05-16T15:48:48.322Z,24.75
2018-05-16T15:51:20.840Z,24.75
2018-05-16T15:53:53.343Z,24.77
2018-05-16T15:56:25.881Z,24.79
2018-05-16T15:58:58.618Z,24.76
2018-05-16T16:01:31.144Z,24.76
2018-05-16T16:04:03.647Z,24.75
2018-05-16T16:06:36.316Z,24.77
2018-05-16T16:09:09.106Z,24.81
2018-05-16T16:11:41.786Z,24.75
2018-05-16T16:14:14.316Z,24.69
2018-05-16T16:16:46.866Z,24.67
2018-05-16T16:19:19.369Z,24.69
2018-05-16T16:21:51.906Z,24.68
2018-05-16T16:24:24.526Z,24.80
2018-05-16T16:26:57.051Z,24.96
2018-05-16T16:29:29.551Z,25.07
2018-05-16T16:32:02.084Z,25.17
2018-05-16T16:34:34.603Z,25.21
2018-05-16T16:37:08.014Z,25.27
2018-05-16T16:39:40.523Z,25.33
2018-05-16T16:42:13.420Z,25.33
2018-05-16T16:44:46.132Z,25.31
2018-05-16T16:47:18.619Z,25.22
2018-05-16T16:49:51.131Z,25.19
2018-05-16T16:52:23.656Z,25.20
2018-05-16T16:54:56.172Z,25.18
2018-05-16T16:57:28.691Z,25.22
2018-05-16T17:00:01.290Z,25.22
2018-05-16T17:02:33.745Z,25.19
2018-05-16T17:05:06.394Z,25.18
2018-05-16T17:07:39.003Z,25.15
2018-05-16T17:10:11.765Z,25.11
2018-05-16T17:12:44.366Z,25.11
2018-05-16T17:15:16.931Z,25.14
2018-05-16T17:17:49.467Z,25.14
2018-05-16T17:20:22.019Z,25.19
2018-05-16T17:22:54.523Z,25.20
2018-05-16T17:25:27.026Z,25.17
2018-05-16T17:27:59.540Z,25.16
2018-05-16T17:30:32.054Z,25.10
2018-05-16T17:33:04.597Z,25.06
2018-05-16T17:35:37.150Z,25.04
2018-05-16T17:38:09.854Z,24.96
2018-05-16T17:40:42.419Z,24.88
2018-05-16T17:43:14.994Z,24.80
2018-05-16T17:45:47.546Z,24.69
2018-05-16T17:48:20.071Z,24.57
2018-05-16T17:50:52.573Z,24.50
2018-05-16T17:53:25.101Z,24.46
2018-05-16T17:55:57.616Z,24.40
2018-05-16T17:58:30.153Z,24.38
2018-05-16T18:01:02.662Z,24.35
2018-05-16T18:03:35.579Z,24.28
2018-05-16T18:06:08.102Z,24.23
2018-05-16T18:08:40.783Z,24.16
2018-05-16T18:11:13.292Z,24.13
2018-05-16T18:13:58.411Z,24.12
2018-05-16T18:16:42.914Z,24.05
2018-05-16T18:19:15.476Z,23.96
2018-05-16T18:21:47.992Z,23.90
2018-05-16T18:24:20.531Z,23.82
2018-05-16T18:26:53.051Z,23.76
2018-05-16T18:29:25.618Z,23.75
2018-05-16T18:31:58.101Z,23.70
2018-05-16T18:34:30.788Z,23.67
2018-05-16T18:37:03.296Z,23.65
2018-05-16T18:39:35.870Z,23.64
2018-05-16T18:42:08.513Z,23.63
2018-05-16T18:44:41.108Z,23.57
2018-05-16T18:47:13.605Z,23.50
2018-05-16T18:49:46.128Z,23.42
2018-05-16T18:52:18.624Z,23.39
2018-05-16T18:54:51.147Z,23.31
2018-05-16T18:57:23.647Z,23.29
2018-05-16T18:59:56.185Z,23.23
2018-05-16T19:02:28.683Z,23.25
2018-05-16T19:05:01.209Z,23.23
2018-05-16T19:07:33.717Z,23.19
2018-05-16T19:10:06.293Z,23.16
2018-05-16T19:12:38.861Z,23.13
2018-05-16T19:15:11.586Z,23.08
2018-05-16T19:17:44.212Z,23.03
2018-05-16T19:20:16.709Z,22.99
2018-05-16T19:22:49.237Z,22.91
2018-05-16T19:25:21.737Z,22.83
2018-05-16T19:27:54.271Z,22.77
2018-05-16T19:30:26.772Z,22.74
2018-05-16T19:32:59.380Z,22.68
2018-05-16T19:35:31.832Z,22.59
2018-05-16T19:38:04.414Z,22.52
2018-05-16T19:40:37.361Z,22.47
2018-05-16T19:43:10.273Z,22.37
2018-05-16T19:45:42.776Z,22.33
2018-05-16T19:48:15.316Z,22.22
2018-05-16T19:50:47.824Z,22.16
2018-05-16T19:53:20.349Z,22.08
2018-05-16T19:55:52.857Z,22.00
2018-05-16T19:58:25.378Z,21.99
2018-05-16T20:00:57.883Z,21.95
2018-05-16T20:03:30.451Z,21.94
2018-05-16T20:06:02.957Z,21.91
2018-05-16T20:08:35.764Z,21.91
2018-05-16T20:11:08.474Z,21.83
2018-05-16T20:13:41.493Z,21.76
2018-05-16T20:16:14.005Z,21.72
2018-05-16T20:18:46.521Z,21.67
2018-05-16T20:21:19.020Z,21.62
2018-05-16T20:23:51.641Z,21.54
2018-05-16T20:26:24.069Z,21.40
2018-05-16T20:28:56.593Z,21.39
2018-05-16T20:31:29.100Z,21.37
2018-05-16T20:34:01.628Z,21.28
2018-05-16T20:36:34.130Z,21.24
2018-05-16T20:39:06.718Z,21.13
2018-05-16T20:41:39.432Z,21.05
2018-05-16T20:44:12.135Z,20.99
2018-05-16T20:46:44.650Z,20.84
2018-05-16T20:49:17.173Z,20.79
2018-05-16T20:51:49.684Z,20.73
2018-05-16T20:54:22.203Z,20.67
2018-05-16T20:56:54.700Z,20.63
2018-05-16T20:59:27.227Z,20.55
2018-05-16T21:01:59.727Z,20.50
2018-05-16T21:04:33.008Z,20.47
2018-05-16T21:07:05.563Z,20.44
2018-05-16T21:09:38.105Z,20.34
2018-05-16T21:12:10.690Z,20.29
2018-05-16T21:14:43.166Z,20.20
2018-05-16T21:17:15.675Z,20.02
2018-05-16T21:19:48.214Z,19.99
2018-05-16T21:22:20.725Z,19.96
2018-05-16T21:24:53.256Z,19.79
2018-05-16T21:27:25.766Z,19.77
2018-05-16T21:29:58.289Z,19.74
2018-05-16T21:32:30.806Z,19.66
2018-05-16T21:35:03.331Z,19.66
2018-05-16T21:37:35.836Z,19.59
2018-05-16T21:40:08.364Z,19.60
2018-05-16T21:42:40.909Z,19.44
2018-05-16T21:45:13.434Z,19.37
2018-05-16T21:47:45.937Z,19.44
2018-05-16T21:50:18.467Z,19.37
2018-05-16T21:52:50.973Z,19.33
2018-05-16T21:55:23.502Z,19.23
2018-05-16T21:57:55.997Z,19.15
2018-05-16T22:00:28.526Z,19.07
2018-05-16T22:03:01.032Z,19.02
2018-05-16T22:05:33.557Z,19.01
2018-05-16T22:08:06.071Z,18.92
2018-05-16T22:10:39.380Z,18.79
2018-05-16T22:13:11.882Z,18.75
2018-05-16T22:15:44.410Z,18.63
2018-05-16T22:18:16.927Z,18.55
2018-05-16T22:20:49.449Z,18.54
2018-05-16T22:23:21.959Z,18.49
2018-05-16T22:25:54.485Z,18.47
2018-05-16T22:28:26.995Z,18.42
2018-05-16T22:31:05.362Z,18.35
2018-05-16T22:33:43.471Z,18.21
2018-05-16T22:36:21.690Z,18.15
2018-05-16T22:38:59.902Z,18.12
2018-05-16T22:41:38.232Z,18.04
2018-05-16T22:44:16.915Z,17.92
2018-05-16T22:46:49.476Z,17.86
2018-05-16T22:49:22.067Z,17.85
2018-05-16T22:51:54.616Z,17.80
2018-05-16T22:54:27.205Z,17.68
2018-05-16T22:56:59.713Z,17.67
2018-05-16T22:59:32.235Z,17.55
2018-05-16T23:02:04.762Z,17.56
2018-05-16T23:04:37.964Z,17.52
2018-05-16T23:07:10.826Z,17.52
2018-05-16T23:09:43.421Z,17.38
2018-05-16T23:12:16.084Z,17.35
2018-05-16T23:14:48.612Z,17.35
2018-05-16T23:17:21.137Z,17.35
2018-05-16T23:19:53.679Z,17.38
2018-05-16T23:22:26.196Z,17.35
2018-05-16T23:24:58.730Z,17.24
2018-05-16T23:27:31.248Z,17.19
2018-05-16T23:30:03.768Z,17.17
2018-05-16T23:32:36.475Z,17.13
2018-05-16T23:35:09.265Z,17.10
2018-05-16T23:37:41.776Z,16.94
2018-05-16T23:40:14.447Z,16.92
2018-05-16T23:42:47.361Z,16.90
2018-05-16T23:45:19.897Z,16.81
2018-05-16T23:47:52.405Z,16.70
2018-05-16T23:50:24.935Z,16.64
2018-05-16T23:52:57.510Z,16.63
2018-05-16T23:55:30.082Z,16.52
2018-05-16T23:58:02.590Z,16.30
